sensor_id;sensor_type;location;lat;lon;timestamp;temperature;humidity
78212;SHT31;67490;52.086;5.122;2023-02-25T00:02:41;7.53;67.26
78212;SHT31;67490;52.086;5.122;2023-02-25T00:05:26;7.43;66.06
78212;SHT31;67490;52.086;5.122;2023-02-25T00:08:10;7.42;66.59
78212;SHT31;67490;52.086;5.122;2023-02-25T00:10:58;7.57;66.58
78212;SHT31;67490;52.086;5.122;2023-02-25T00:13:43;7.64;67.22
78212;SHT31;67490;52.086;5.122;2023-02-25T00:16:27;7.65;65.64
78212;SHT31;67490;52.086;5.122;2023-02-25T00:19:13;7.43;65.27
78212;SHT31;67490;52.086;5.122;2023-02-25T00:21:58;7.42;66.20
78212;SHT31;67490;52.086;5.122;2023-02-25T00:24:42;7.58;66.43
78212;SHT31;67490;52.086;5.122;2023-02-25T00:27:27;7.54;65.97
78212;SHT31;67490;52.086;5.122;2023-02-25T00:30:12;7.47;66.53
78212;SHT31;67490;52.086;5.122;2023-02-25T00:32:56;7.43;66.09
78212;SHT31;67490;52.086;5.122;2023-02-25T00:35:42;7.57;66.50
78212;SHT31;67490;52.086;5.122;2023-02-25T00:38:27;7.63;66.07
78212;SHT31;67490;52.086;5.122;2023-02-25T00:41:11;7.65;66.24
78212;SHT31;67490;52.086;5.122;2023-02-25T00:43:58;7.40;66.65
78212;SHT31;67490;52.086;5.122;2023-02-25T00:46:42;7.40;66.72
78212;SHT31;67490;52.086;5.122;2023-02-25T00:49:27;7.48;66.13
78212;SHT31;67490;52.086;5.122;2023-02-25T00:52:14;7.46;66.22
78212;SHT31;67490;52.086;5.122;2023-02-25T00:54:58;7.46;66.49
78212;SHT31;67490;52.086;5.122;2023-02-25T00:57:42;7.47;67.49
78212;SHT31;67490;52.086;5.122;2023-02-25T01:00:27;7.60;67.06
78212;SHT31;67490;52.086;5.122;2023-02-25T01:03:12;7.61;67.40
78212;SHT31;67490;52.086;5.122;2023-02-25T01:05:56;7.43;67.99
78212;SHT31;67490;52.086;5.122;2023-02-25T01:08:42;7.51;68.35
78212;SHT31;67490;52.086;5.122;2023-02-25T01:11:29;7.57;68.50
78212;SHT31;67490;52.086;5.122;2023-02-25T01:14:16;7.58;68.26
78212;SHT31;67490;52.086;5.122;2023-02-25T01:17:02;7.57;68.54
78212;SHT31;67490;52.086;5.122;2023-02-25T01:19:46;7.60;69.10
78212;SHT31;67490;52.086;5.122;2023-02-25T01:22:31;7.60;68.54
78212;SHT31;67490;52.086;5.122;2023-02-25T01:25:16;7.44;69.59
78212;SHT31;67490;52.086;5.122;2023-02-25T01:28:01;7.34;69.58
78212;SHT31;67490;52.086;5.122;2023-02-25T01:30:45;7.38;69.80
78212;SHT31;67490;52.086;5.122;2023-02-25T01:33:30;7.54;69.23
78212;SHT31;67490;52.086;5.122;2023-02-25T01:36:14;7.23;69.59
78212;SHT31;67490;52.086;5.122;2023-02-25T01:39:00;7.27;70.24
78212;SHT31;67490;52.086;5.122;2023-02-25T01:41:47;7.16;70.05
78212;SHT31;67490;52.086;5.122;2023-02-25T01:44:40;7.34;69.86
78212;SHT31;67490;52.086;5.122;2023-02-25T01:47:46;7.34;69.57
78212;SHT31;67490;52.086;5.122;2023-02-25T01:50:41;7.23;69.78
78212;SHT31;67490;52.086;5.122;2023-02-25T01:53:31;7.27;69.93
78212;SHT31;67490;52.086;5.122;2023-02-25T01:56:19;7.13;70.10
78212;SHT31;67490;52.086;5.122;2023-02-25T01:59:08;6.95;70.88
78212;SHT31;67490;52.086;5.122;2023-02-25T02:01:53;7.09;70.15
78212;SHT31;67490;52.086;5.122;2023-02-25T02:04:40;6.85;70.44
78212;SHT31;67490;52.086;5.122;2023-02-25T02:07:25;6.81;71.35
78212;SHT31;67490;52.086;5.122;2023-02-25T02:10:10;6.93;70.37
78212;SHT31;67490;52.086;5.122;2023-02-25T02:12:55;7.10;70.54
78212;SHT31;67490;52.086;5.122;2023-02-25T02:15:53;7.20;69.40
78212;SHT31;67490;52.086;5.122;2023-02-25T02:18:46;7.34;69.98
78212;SHT31;67490;52.086;5.122;2023-02-25T02:21:49;7.50;68.60
78212;SHT31;67490;52.086;5.122;2023-02-25T02:28:25;7.38;69.91
78212;SHT31;67490;52.086;5.122;2023-02-25T02:31:31;7.61;69.22
78212;SHT31;67490;52.086;5.122;2023-02-25T02:34:29;7.70;68.98
78212;SHT31;67490;52.086;5.122;2023-02-25T02:37:26;7.65;68.55
78212;SHT31;67490;52.086;5.122;2023-02-25T02:40:24;7.68;69.04
78212;SHT31;67490;52.086;5.122;2023-02-25T02:43:26;7.74;69.21
78212;SHT31;67490;52.086;5.122;2023-02-25T02:46:19;7.82;69.08
78212;SHT31;67490;52.086;5.122;2023-02-25T02:49:12;7.81;69.03
78212;SHT31;67490;52.086;5.122;2023-02-25T02:52:03;7.74;68.26
78212;SHT31;67490;52.086;5.122;2023-02-25T02:54:53;7.56;69.18
78212;SHT31;67490;52.086;5.122;2023-02-25T02:57:41;7.60;68.61
78212;SHT31;67490;52.086;5.122;2023-02-25T03:00:32;7.64;68.59
78212;SHT31;67490;52.086;5.122;2023-02-25T03:03:21;7.65;67.27
78212;SHT31;67490;52.086;5.122;2023-02-25T03:06:13;7.95;66.83
78212;SHT31;67490;52.086;5.122;2023-02-25T03:09:04;7.92;67.59
78212;SHT31;67490;52.086;5.122;2023-02-25T03:11:49;7.87;67.67
78212;SHT31;67490;52.086;5.122;2023-02-25T03:14:35;8.06;67.45
78212;SHT31;67490;52.086;5.122;2023-02-25T03:17:24;8.06;67.16
78212;SHT31;67490;52.086;5.122;2023-02-25T03:20:15;8.06;67.37
78212;SHT31;67490;52.086;5.122;2023-02-25T03:23:06;8.12;67.12
78212;SHT31;67490;52.086;5.122;2023-02-25T03:25:55;8.02;67.12
78212;SHT31;67490;52.086;5.122;2023-02-25T03:28:44;8.08;66.16
78212;SHT31;67490;52.086;5.122;2023-02-25T03:31:34;7.85;67.16
78212;SHT31;67490;52.086;5.122;2023-02-25T03:34:25;7.70;67.86
78212;SHT31;67490;52.086;5.122;2023-02-25T03:37:16;7.75;68.06
78212;SHT31;67490;52.086;5.122;2023-02-25T03:40:06;7.85;67.35
78212;SHT31;67490;52.086;5.122;2023-02-25T03:43:01;7.75;67.64
78212;SHT31;67490;52.086;5.122;2023-02-25T03:45:50;7.81;67.43
78212;SHT31;67490;52.086;5.122;2023-02-25T03:48:37;7.84;66.99
78212;SHT31;67490;52.086;5.122;2023-02-25T03:51:27;7.71;67.11
78212;SHT31;67490;52.086;5.122;2023-02-25T03:54:13;7.75;67.12
78212;SHT31;67490;52.086;5.122;2023-02-25T03:57:01;7.70;67.05
78212;SHT31;67490;52.086;5.122;2023-02-25T03:59:45;7.65;66.97
78212;SHT31;67490;52.086;5.122;2023-02-25T04:02:31;7.46;67.44
78212;SHT31;67490;52.086;5.122;2023-02-25T04:05:18;7.48;66.85
78212;SHT31;67490;52.086;5.122;2023-02-25T04:08:02;7.54;66.08
78212;SHT31;67490;52.086;5.122;2023-02-25T04:10:47;7.74;65.57
78212;SHT31;67490;52.086;5.122;2023-02-25T04:13:32;7.53;66.50
78212;SHT31;67490;52.086;5.122;2023-02-25T04:16:17;7.60;66.14
78212;SHT31;67490;52.086;5.122;2023-02-25T04:19:02;7.74;65.85
78212;SHT31;67490;52.086;5.122;2023-02-25T04:21:46;7.82;66.05
78212;SHT31;67490;52.086;5.122;2023-02-25T04:24:30;7.54;66.47
78212;SHT31;67490;52.086;5.122;2023-02-25T04:27:15;7.48;67.23
78212;SHT31;67490;52.086;5.122;2023-02-25T04:30:01;7.61;66.57
78212;SHT31;67490;52.086;5.122;2023-02-25T04:32:46;7.53;66.67
78212;SHT31;67490;52.086;5.122;2023-02-25T04:35:30;7.65;66.20
78212;SHT31;67490;52.086;5.122;2023-02-25T04:38:14;7.71;66.09
78212;SHT31;67490;52.086;5.122;2023-02-25T04:40:59;7.50;66.25
78212;SHT31;67490;52.086;5.122;2023-02-25T04:43:43;7.57;66.15
78212;SHT31;67490;52.086;5.122;2023-02-25T04:46:34;7.51;65.97
78212;SHT31;67490;52.086;5.122;2023-02-25T04:49:21;7.47;65.25
78212;SHT31;67490;52.086;5.122;2023-02-25T04:52:05;7.43;65.86
78212;SHT31;67490;52.086;5.122;2023-02-25T04:54:49;7.51;64.97
78212;SHT31;67490;52.086;5.122;2023-02-25T04:57:35;7.53;64.89
78212;SHT31;67490;52.086;5.122;2023-02-25T05:00:21;7.61;64.80
78212;SHT31;67490;52.086;5.122;2023-02-25T05:03:11;7.73;64.81
78212;SHT31;67490;52.086;5.122;2023-02-25T05:05:56;7.74;64.51
78212;SHT31;67490;52.086;5.122;2023-02-25T05:08:40;7.79;64.62
78212;SHT31;67490;52.086;5.122;2023-02-25T05:11:26;7.77;63.95
78212;SHT31;67490;52.086;5.122;2023-02-25T05:14:11;7.77;64.82
78212;SHT31;67490;52.086;5.122;2023-02-25T05:16:56;7.91;63.36
78212;SHT31;67490;52.086;5.122;2023-02-25T05:19:41;7.96;63.44
78212;SHT31;67490;52.086;5.122;2023-02-25T05:22:27;7.91;63.80
78212;SHT31;67490;52.086;5.122;2023-02-25T05:25:11;7.88;63.61
78212;SHT31;67490;52.086;5.122;2023-02-25T05:27:55;7.78;63.63
78212;SHT31;67490;52.086;5.122;2023-02-25T05:30:39;7.57;64.70
78212;SHT31;67490;52.086;5.122;2023-02-25T05:33:24;7.47;65.44
78212;SHT31;67490;52.086;5.122;2023-02-25T05:36:13;7.42;65.71
78212;SHT31;67490;52.086;5.122;2023-02-25T05:38:58;7.27;65.97
78212;SHT31;67490;52.086;5.122;2023-02-25T05:41:46;7.20;66.31
78212;SHT31;67490;52.086;5.122;2023-02-25T05:44:32;7.37;66.26
78212;SHT31;67490;52.086;5.122;2023-02-25T05:47:16;7.33;66.59
78212;SHT31;67490;52.086;5.122;2023-02-25T05:50:02;7.46;66.43
78212;SHT31;67490;52.086;5.122;2023-02-25T05:52:47;7.37;66.72
78212;SHT31;67490;52.086;5.122;2023-02-25T05:55:32;7.36;66.64
78212;SHT31;67490;52.086;5.122;2023-02-25T05:58:16;7.47;66.25
78212;SHT31;67490;52.086;5.122;2023-02-25T06:01:06;7.42;67.03
78212;SHT31;67490;52.086;5.122;2023-02-25T06:03:54;7.40;66.89
78212;SHT31;67490;52.086;5.122;2023-02-25T06:06:41;7.27;66.75
78212;SHT31;67490;52.086;5.122;2023-02-25T06:09:27;7.47;66.73
78212;SHT31;67490;52.086;5.122;2023-02-25T06:12:12;7.47;66.74
78212;SHT31;67490;52.086;5.122;2023-02-25T06:14:56;7.44;66.27
78212;SHT31;67490;52.086;5.122;2023-02-25T06:17:41;7.63;66.11
78212;SHT31;67490;52.086;5.122;2023-02-25T06:20:25;7.60;66.18
78212;SHT31;67490;52.086;5.122;2023-02-25T06:23:11;7.63;65.74
78212;SHT31;67490;52.086;5.122;2023-02-25T06:25:58;7.53;65.86
78212;SHT31;67490;52.086;5.122;2023-02-25T06:28:43;7.60;65.51
78212;SHT31;67490;52.086;5.122;2023-02-25T06:31:27;7.53;65.68
78212;SHT31;67490;52.086;5.122;2023-02-25T06:34:12;7.63;65.26
78212;SHT31;67490;52.086;5.122;2023-02-25T06:36:56;7.33;66.78
78212;SHT31;67490;52.086;5.122;2023-02-25T06:39:40;7.38;66.47
78212;SHT31;67490;52.086;5.122;2023-02-25T06:42:27;7.40;66.78
78212;SHT31;67490;52.086;5.122;2023-02-25T06:45:12;7.44;66.15
78212;SHT31;67490;52.086;5.122;2023-02-25T06:47:56;7.50;65.66
78212;SHT31;67490;52.086;5.122;2023-02-25T06:50:41;7.22;66.71
78212;SHT31;67490;52.086;5.122;2023-02-25T06:53:25;7.36;66.49
78212;SHT31;67490;52.086;5.122;2023-02-25T06:56:12;7.48;66.62
78212;SHT31;67490;52.086;5.122;2023-02-25T06:58:58;7.64;66.04
78212;SHT31;67490;52.086;5.122;2023-02-25T07:01:43;7.40;66.19
78212;SHT31;67490;52.086;5.122;2023-02-25T07:04:27;7.34;66.90
78212;SHT31;67490;52.086;5.122;2023-02-25T07:07:11;7.47;65.97
78212;SHT31;67490;52.086;5.122;2023-02-25T07:09:55;7.61;65.76
78212;SHT31;67490;52.086;5.122;2023-02-25T07:12:40;7.65;65.69
78212;SHT31;67490;52.086;5.122;2023-02-25T07:15:25;7.67;65.10
78212;SHT31;67490;52.086;5.122;2023-02-25T07:18:09;7.50;65.81
78212;SHT31;67490;52.086;5.122;2023-02-25T07:20:56;7.43;65.13
78212;SHT31;67490;52.086;5.122;2023-02-25T07:23:41;7.34;65.67
78212;SHT31;67490;52.086;5.122;2023-02-25T07:26:25;7.46;65.11
78212;SHT31;67490;52.086;5.122;2023-02-25T07:29:11;7.63;64.78
78212;SHT31;67490;52.086;5.122;2023-02-25T07:31:58;7.61;64.34
78212;SHT31;67490;52.086;5.122;2023-02-25T07:34:43;7.71;64.38
78212;SHT31;67490;52.086;5.122;2023-02-25T07:37:27;7.57;64.34
78212;SHT31;67490;52.086;5.122;2023-02-25T07:40:12;7.51;64.45
78212;SHT31;67490;52.086;5.122;2023-02-25T07:42:57;7.34;65.47
78212;SHT31;67490;52.086;5.122;2023-02-25T07:45:41;7.53;64.95
78212;SHT31;67490;52.086;5.122;2023-02-25T07:48:27;7.54;64.96
78212;SHT31;67490;52.086;5.122;2023-02-25T07:51:14;7.56;64.64
78212;SHT31;67490;52.086;5.122;2023-02-25T07:54:00;7.61;64.55
78212;SHT31;67490;52.086;5.122;2023-02-25T07:56:44;7.58;64.95
78212;SHT31;67490;52.086;5.122;2023-02-25T07:59:29;7.61;64.77
78212;SHT31;67490;52.086;5.122;2023-02-25T08:02:14;7.81;64.73
78212;SHT31;67490;52.086;5.122;2023-02-25T08:05:00;7.65;65.99
78212;SHT31;67490;52.086;5.122;2023-02-25T08:07:45;7.71;64.89
78212;SHT31;67490;52.086;5.122;2023-02-25T08:10:29;7.63;65.39
78212;SHT31;67490;52.086;5.122;2023-02-25T08:13:13;7.78;65.43
78212;SHT31;67490;52.086;5.122;2023-02-25T08:15:58;7.28;67.57
78212;SHT31;67490;52.086;5.122;2023-02-25T08:18:43;6.85;69.77
78212;SHT31;67490;52.086;5.122;2023-02-25T08:21:29;6.98;69.34
78212;SHT31;67490;52.086;5.122;2023-02-25T08:24:13;7.23;69.18
78212;SHT31;67490;52.086;5.122;2023-02-25T08:26:58;7.47;69.08
78212;SHT31;67490;52.086;5.122;2023-02-25T08:29:42;7.50;68.76
78212;SHT31;67490;52.086;5.122;2023-02-25T08:32:26;7.44;69.31
78212;SHT31;67490;52.086;5.122;2023-02-25T08:35:11;7.75;69.24
78212;SHT31;67490;52.086;5.122;2023-02-25T08:37:57;7.63;68.65
78212;SHT31;67490;52.086;5.122;2023-02-25T08:40:44;7.60;68.70
78212;SHT31;67490;52.086;5.122;2023-02-25T08:43:28;7.81;68.46
78212;SHT31;67490;52.086;5.122;2023-02-25T08:46:12;7.84;66.65
78212;SHT31;67490;52.086;5.122;2023-02-25T08:48:57;7.75;67.60
78212;SHT31;67490;52.086;5.122;2023-02-25T08:51:42;7.96;66.17
78212;SHT31;67490;52.086;5.122;2023-02-25T08:54:28;7.91;66.22
78212;SHT31;67490;52.086;5.122;2023-02-25T08:57:12;8.06;64.88
78212;SHT31;67490;52.086;5.122;2023-02-25T08:59:56;8.03;64.14
78212;SHT31;67490;52.086;5.122;2023-02-25T09:02:42;7.95;65.04
78212;SHT31;67490;52.086;5.122;2023-02-25T09:05:28;7.98;64.56
78212;SHT31;67490;52.086;5.122;2023-02-25T09:08:13;7.74;64.65
78212;SHT31;67490;52.086;5.122;2023-02-25T09:10:58;7.73;65.49
78212;SHT31;67490;52.086;5.122;2023-02-25T09:13:43;7.56;65.95
78212;SHT31;67490;52.086;5.122;2023-02-25T09:16:28;7.57;66.22
78212;SHT31;67490;52.086;5.122;2023-02-25T09:19:13;7.75;65.86
78212;SHT31;67490;52.086;5.122;2023-02-25T09:22:00;7.57;66.31
78212;SHT31;67490;52.086;5.122;2023-02-25T09:24:45;7.63;67.93
78212;SHT31;67490;52.086;5.122;2023-02-25T09:27:31;7.40;68.31
78212;SHT31;67490;52.086;5.122;2023-02-25T09:30:15;7.57;68.08
78212;SHT31;67490;52.086;5.122;2023-02-25T09:33:00;7.54;68.62
78212;SHT31;67490;52.086;5.122;2023-02-25T09:35:44;7.82;69.10
78212;SHT31;67490;52.086;5.122;2023-02-25T09:38:29;7.92;70.16
78212;SHT31;67490;52.086;5.122;2023-02-25T09:41:23;8.15;67.62
78212;SHT31;67490;52.086;5.122;2023-02-25T09:44:13;8.08;68.55
78212;SHT31;67490;52.086;5.122;2023-02-25T09:47:02;8.45;67.48
78212;SHT31;67490;52.086;5.122;2023-02-25T09:49:52;8.16;68.11
78212;SHT31;67490;52.086;5.122;2023-02-25T09:52:42;7.61;71.55
78212;SHT31;67490;52.086;5.122;2023-02-25T09:55:31;7.33;72.97
78212;SHT31;67490;52.086;5.122;2023-02-25T09:58:23;6.89;72.54
78212;SHT31;67490;52.086;5.122;2023-02-25T10:01:17;6.37;74.62
78212;SHT31;67490;52.086;5.122;2023-02-25T10:04:15;6.44;74.56
78212;SHT31;67490;52.086;5.122;2023-02-25T10:07:07;6.52;75.09
78212;SHT31;67490;52.086;5.122;2023-02-25T10:10:01;6.30;76.00
78212;SHT31;67490;52.086;5.122;2023-02-25T10:12:58;6.69;75.65
78212;SHT31;67490;52.086;5.122;2023-02-25T10:15:52;7.00;74.34
78212;SHT31;67490;52.086;5.122;2023-02-25T10:18:56;7.47;74.52
78212;SHT31;67490;52.086;5.122;2023-02-25T10:22:04;7.64;71.50
78212;SHT31;67490;52.086;5.122;2023-02-25T10:25:04;8.02;71.10
78212;SHT31;67490;52.086;5.122;2023-02-25T10:27:58;7.94;71.01
78212;SHT31;67490;52.086;5.122;2023-02-25T10:30:53;8.03;70.80
78212;SHT31;67490;52.086;5.122;2023-02-25T10:33:47;8.05;71.65
78212;SHT31;67490;52.086;5.122;2023-02-25T10:36:36;8.29;68.57
78212;SHT31;67490;52.086;5.122;2023-02-25T10:39:26;8.16;69.65
78212;SHT31;67490;52.086;5.122;2023-02-25T10:42:11;7.99;68.62
78212;SHT31;67490;52.086;5.122;2023-02-25T10:45:05;8.10;69.10
78212;SHT31;67490;52.086;5.122;2023-02-25T10:48:00;8.33;68.78
78212;SHT31;67490;52.086;5.122;2023-02-25T10:51:03;8.19;67.89
78212;SHT31;67490;52.086;5.122;2023-02-25T10:54:04;8.37;67.88
78212;SHT31;67490;52.086;5.122;2023-02-25T10:56:49;8.19;68.19
78212;SHT31;67490;52.086;5.122;2023-02-25T10:59:36;8.57;67.63
78212;SHT31;67490;52.086;5.122;2023-02-25T11:02:24;8.66;65.84
78212;SHT31;67490;52.086;5.122;2023-02-25T11:05:32;8.54;62.99
78212;SHT31;67490;52.086;5.122;2023-02-25T11:08:28;7.87;65.75
78212;SHT31;67490;52.086;5.122;2023-02-25T11:11:18;7.42;67.46
78212;SHT31;67490;52.086;5.122;2023-02-25T11:14:05;7.06;67.21
78212;SHT31;67490;52.086;5.122;2023-02-25T11:16:50;6.92;67.79
78212;SHT31;67490;52.086;5.122;2023-02-25T11:19:46;6.78;65.32
78212;SHT31;67490;52.086;5.122;2023-02-25T11:22:37;7.00;66.61
78212;SHT31;67490;52.086;5.122;2023-02-25T11:25:36;7.31;66.31
78212;SHT31;67490;52.086;5.122;2023-02-25T11:28:28;7.28;64.35
78212;SHT31;67490;52.086;5.122;2023-02-25T11:31:17;7.28;65.41
78212;SHT31;67490;52.086;5.122;2023-02-25T11:34:10;7.51;64.01
78212;SHT31;67490;52.086;5.122;2023-02-25T11:37:00;7.51;61.45
78212;SHT31;67490;52.086;5.122;2023-02-25T11:40:22;7.63;63.58
78212;SHT31;67490;52.086;5.122;2023-02-25T11:43:17;7.43;61.27
78212;SHT31;67490;52.086;5.122;2023-02-25T11:46:06;7.70;61.30
78212;SHT31;67490;52.086;5.122;2023-02-25T11:48:56;7.96;60.32
78212;SHT31;67490;52.086;5.122;2023-02-25T11:51:50;8.05;58.85
78212;SHT31;67490;52.086;5.122;2023-02-25T11:54:46;8.26;58.70
78212;SHT31;67490;52.086;5.122;2023-02-25T11:57:42;8.25;60.31
78212;SHT31;67490;52.086;5.122;2023-02-25T12:00:37;8.13;57.30
78212;SHT31;67490;52.086;5.122;2023-02-25T12:03:50;7.87;58.31
78212;SHT31;67490;52.086;5.122;2023-02-25T12:07:11;7.87;57.51
78212;SHT31;67490;52.086;5.122;2023-02-25T12:10:23;7.82;57.75
78212;SHT31;67490;52.086;5.122;2023-02-25T12:13:43;7.70;56.31
78212;SHT31;67490;52.086;5.122;2023-02-25T12:20:49;8.35;53.07
78212;SHT31;67490;52.086;5.122;2023-02-25T12:27:44;8.39;51.54
78212;SHT31;67490;52.086;5.122;2023-02-25T12:30:56;8.76;52.92
78212;SHT31;67490;52.086;5.122;2023-02-25T12:37:21;8.66;51.82
78212;SHT31;67490;52.086;5.122;2023-02-25T12:40:28;8.26;52.81
78212;SHT31;67490;52.086;5.122;2023-02-25T12:43:29;8.33;54.09
78212;SHT31;67490;52.086;5.122;2023-02-25T12:46:48;8.26;53.65
78212;SHT31;67490;52.086;5.122;2023-02-25T12:49:59;7.88;55.32
78212;SHT31;67490;52.086;5.122;2023-02-25T12:56:18;7.88;51.51
78212;SHT31;67490;52.086;5.122;2023-02-25T12:59:31;8.08;52.11
78212;SHT31;67490;52.086;5.122;2023-02-25T13:02:39;8.13;55.34
78212;SHT31;67490;52.086;5.122;2023-02-25T13:05:58;8.54;52.40
78212;SHT31;67490;52.086;5.122;2023-02-25T13:08:58;8.39;50.73
78212;SHT31;67490;52.086;5.122;2023-02-25T13:12:04;8.19;48.62
78212;SHT31;67490;52.086;5.122;2023-02-25T13:15:01;8.08;48.73
78212;SHT31;67490;52.086;5.122;2023-02-25T13:18:02;8.28;48.36
78212;SHT31;67490;52.086;5.122;2023-02-25T13:21:17;8.17;46.83
78212;SHT31;67490;52.086;5.122;2023-02-25T13:27:35;8.36;46.36
78212;SHT31;67490;52.086;5.122;2023-02-25T13:30:38;8.19;45.05
78212;SHT31;67490;52.086;5.122;2023-02-25T13:33:47;8.37;44.01
78212;SHT31;67490;52.086;5.122;2023-02-25T13:36:58;8.59;44.11
78212;SHT31;67490;52.086;5.122;2023-02-25T13:39:58;8.53;43.78
78212;SHT31;67490;52.086;5.122;2023-02-25T13:43:02;8.30;44.07
78212;SHT31;67490;52.086;5.122;2023-02-25T13:46:08;8.12;45.13
78212;SHT31;67490;52.086;5.122;2023-02-25T13:49:17;7.99;43.79
78212;SHT31;67490;52.086;5.122;2023-02-25T13:52:23;7.85;46.39
78212;SHT31;67490;52.086;5.122;2023-02-25T13:55:27;7.99;45.73
78212;SHT31;67490;52.086;5.122;2023-02-25T13:58:35;7.88;46.06
78212;SHT31;67490;52.086;5.122;2023-02-25T14:05:12;8.03;46.82
78212;SHT31;67490;52.086;5.122;2023-02-25T14:08:49;7.87;46.58
78212;SHT31;67490;52.086;5.122;2023-02-25T14:11:46;8.15;45.91
78212;SHT31;67490;52.086;5.122;2023-02-25T14:18:21;8.28;46.55
78212;SHT31;67490;52.086;5.122;2023-02-25T14:21:27;8.13;46.52
78212;SHT31;67490;52.086;5.122;2023-02-25T14:24:28;8.09;46.56
78212;SHT31;67490;52.086;5.122;2023-02-25T14:27:28;7.82;46.14
78212;SHT31;67490;52.086;5.122;2023-02-25T14:30:21;8.12;45.62
78212;SHT31;67490;52.086;5.122;2023-02-25T14:33:38;8.12;46.27
78212;SHT31;67490;52.086;5.122;2023-02-25T14:36:48;7.87;46.05
78212;SHT31;67490;52.086;5.122;2023-02-25T14:39:53;7.84;45.49
78212;SHT31;67490;52.086;5.122;2023-02-25T14:42:58;7.79;44.57
78212;SHT31;67490;52.086;5.122;2023-02-25T14:45:50;7.84;46.19
78212;SHT31;67490;52.086;5.122;2023-02-25T14:48:44;7.79;45.39
78212;SHT31;67490;52.086;5.122;2023-02-25T14:51:51;7.73;46.32
78212;SHT31;67490;52.086;5.122;2023-02-25T14:55:22;7.91;45.61
78212;SHT31;67490;52.086;5.122;2023-02-25T15:01:44;7.79;48.83
78212;SHT31;67490;52.086;5.122;2023-02-25T15:08:22;7.47;49.69
78212;SHT31;67490;52.086;5.122;2023-02-25T15:11:30;7.56;50.16
78212;SHT31;67490;52.086;5.122;2023-02-25T15:15:01;7.48;48.58
78212;SHT31;67490;52.086;5.122;2023-02-25T15:21:38;7.60;48.57
78212;SHT31;67490;52.086;5.122;2023-02-25T15:24:37;7.36;47.39
78212;SHT31;67490;52.086;5.122;2023-02-25T15:27:43;7.46;46.40
78212;SHT31;67490;52.086;5.122;2023-02-25T15:31:02;7.51;45.05
78212;SHT31;67490;52.086;5.122;2023-02-25T15:33:47;7.36;43.77
78212;SHT31;67490;52.086;5.122;2023-02-25T15:36:40;7.26;43.30
78212;SHT31;67490;52.086;5.122;2023-02-25T15:39:46;7.23;42.73
78212;SHT31;67490;52.086;5.122;2023-02-25T15:42:47;7.37;42.98
78212;SHT31;67490;52.086;5.122;2023-02-25T15:45:35;7.31;44.54
78212;SHT31;67490;52.086;5.122;2023-02-25T15:48:38;7.37;45.05
78212;SHT31;67490;52.086;5.122;2023-02-25T15:51:41;7.54;45.20
78212;SHT31;67490;52.086;5.122;2023-02-25T15:54:46;7.31;45.72
78212;SHT31;67490;52.086;5.122;2023-02-25T15:57:36;7.28;45.57
78212;SHT31;67490;52.086;5.122;2023-02-25T16:00:50;7.34;46.15
78212;SHT31;67490;52.086;5.122;2023-02-25T16:03:41;7.07;47.40
78212;SHT31;67490;52.086;5.122;2023-02-25T16:06:31;7.33;46.51
78212;SHT31;67490;52.086;5.122;2023-02-25T16:09:22;7.40;46.27
78212;SHT31;67490;52.086;5.122;2023-02-25T16:12:13;7.43;45.94
78212;SHT31;67490;52.086;5.122;2023-02-25T16:14:58;7.42;45.25
78212;SHT31;67490;52.086;5.122;2023-02-25T16:17:46;7.34;45.66
78212;SHT31;67490;52.086;5.122;2023-02-25T16:20:41;7.30;46.29
78212;SHT31;67490;52.086;5.122;2023-02-25T16:23:29;7.07;47.58
78212;SHT31;67490;52.086;5.122;2023-02-25T16:26:28;7.09;47.74
78212;SHT31;67490;52.086;5.122;2023-02-25T16:29:26;6.88;48.90
78212;SHT31;67490;52.086;5.122;2023-02-25T16:32:26;6.96;48.57
78212;SHT31;67490;52.086;5.122;2023-02-25T16:35:23;6.89;48.69
78212;SHT31;67490;52.086;5.122;2023-02-25T16:38:18;7.03;48.80
78212;SHT31;67490;52.086;5.122;2023-02-25T16:41:04;7.05;48.64
78212;SHT31;67490;52.086;5.122;2023-02-25T16:43:48;7.10;48.86
78212;SHT31;67490;52.086;5.122;2023-02-25T16:46:36;6.99;48.73
78212;SHT31;67490;52.086;5.122;2023-02-25T16:49:29;7.15;48.77
78212;SHT31;67490;52.086;5.122;2023-02-25T16:52:18;7.12;48.78
78212;SHT31;67490;52.086;5.122;2023-02-25T16:55:07;6.99;49.47
78212;SHT31;67490;52.086;5.122;2023-02-25T16:58:05;7.07;49.65
78212;SHT31;67490;52.086;5.122;2023-02-25T17:00:52;6.89;49.56
78212;SHT31;67490;52.086;5.122;2023-02-25T17:03:43;6.92;49.76
78212;SHT31;67490;52.086;5.122;2023-02-25T17:06:29;6.85;49.92
78212;SHT31;67490;52.086;5.122;2023-02-25T17:09:23;6.93;50.18
78212;SHT31;67490;52.086;5.122;2023-02-25T17:12:14;6.89;50.59
78212;SHT31;67490;52.086;5.122;2023-02-25T17:15:02;6.91;50.30
78212;SHT31;67490;52.086;5.122;2023-02-25T17:17:52;6.89;50.29
78212;SHT31;67490;52.086;5.122;2023-02-25T17:20:38;7.03;57.19
78212;SHT31;67490;52.086;5.122;2023-02-25T17:23:23;6.84;51.20
78212;SHT31;67490;52.086;5.122;2023-02-25T17:26:14;6.81;51.32
78212;SHT31;67490;52.086;5.122;2023-02-25T17:29:00;6.64;51.35
78212;SHT31;67490;52.086;5.122;2023-02-25T17:31:47;6.57;49.96
78212;SHT31;67490;52.086;5.122;2023-02-25T17:34:34;6.71;50.03
78212;SHT31;67490;52.086;5.122;2023-02-25T17:37:21;6.69;50.08
78212;SHT31;67490;52.086;5.122;2023-02-25T17:40:07;6.76;49.82
78212;SHT31;67490;52.086;5.122;2023-02-25T17:43:14;6.47;50.72
78212;SHT31;67490;52.086;5.122;2023-02-25T17:46:02;6.61;50.95
78212;SHT31;67490;52.086;5.122;2023-02-25T17:48:58;6.72;50.24
78212;SHT31;67490;52.086;5.122;2023-02-25T17:51:45;6.75;50.45
78212;SHT31;67490;52.086;5.122;2023-02-25T17:54:33;6.82;51.26
78212;SHT31;67490;52.086;5.122;2023-02-25T17:57:20;6.71;50.40
78212;SHT31;67490;52.086;5.122;2023-02-25T18:00:18;6.55;51.27
78212;SHT31;67490;52.086;5.122;2023-02-25T18:03:13;6.48;52.03
78212;SHT31;67490;52.086;5.122;2023-02-25T18:05:59;6.67;51.49
78212;SHT31;67490;52.086;5.122;2023-02-25T18:08:51;6.65;54.75
78212;SHT31;67490;52.086;5.122;2023-02-25T18:11:38;6.59;51.92
78212;SHT31;67490;52.086;5.122;2023-02-25T18:14:29;6.72;51.74
78212;SHT31;67490;52.086;5.122;2023-02-25T18:17:23;6.63;51.88
78212;SHT31;67490;52.086;5.122;2023-02-25T18:20:26;6.81;51.64
78212;SHT31;67490;52.086;5.122;2023-02-25T18:23:18;6.37;51.90
78212;SHT31;67490;52.086;5.122;2023-02-25T18:26:13;6.47;52.12
78212;SHT31;67490;52.086;5.122;2023-02-25T18:28:58;6.38;52.59
78212;SHT31;67490;52.086;5.122;2023-02-25T18:31:42;6.49;51.95
78212;SHT31;67490;52.086;5.122;2023-02-25T18:34:28;6.47;52.73
78212;SHT31;67490;52.086;5.122;2023-02-25T18:37:15;6.59;51.60
78212;SHT31;67490;52.086;5.122;2023-02-25T18:40:00;6.57;52.51
78212;SHT31;67490;52.086;5.122;2023-02-25T18:42:44;6.65;52.94
78212;SHT31;67490;52.086;5.122;2023-02-25T18:45:30;6.59;52.43
78212;SHT31;67490;52.086;5.122;2023-02-25T18:48:15;6.63;52.39
78212;SHT31;67490;52.086;5.122;2023-02-25T18:51:02;6.84;52.87
78212;SHT31;67490;52.086;5.122;2023-02-25T18:53:48;6.92;51.89
78212;SHT31;67490;52.086;5.122;2023-02-25T18:56:33;6.81;51.04
78212;SHT31;67490;52.086;5.122;2023-02-25T18:59:17;6.76;51.73